sensor_id;sensor_type;location;lat;lon;timestamp;pressure;altitude;pressure_sealevel;temperature;humidity
41334;BME280;27078;46.428;6.256;2023-03-23T00:01:30;96146.09;;;12.16;86.45
41334;BME280;27078;46.428;6.256;2023-03-23T00:03:58;96144.06;;;12.28;82.87
41334;BME280;27078;46.428;6.256;2023-03-23T00:06:26;96142.84;;;12.22;85.50
41334;BME280;27078;46.428;6.256;2023-03-23T00:08:54;96149.66;;;12.25;85.96
41334;BME280;27078;46.428;6.256;2023-03-23T00:11:26;96149.91;;;12.13;89.59
41334;BME280;27078;46.428;6.256;2023-03-23T00:13:54;96147.03;;;12.07;90.78
41334;BME280;27078;46.428;6.256;2023-03-23T00:16:24;96149.28;;;12.01;90.79
41334;BME280;27078;46.428;6.256;2023-03-23T00:19:02;96149.97;;;11.86;92.15
41334;BME280;27078;46.428;6.256;2023-03-23T00:21:30;96144.81;;;11.84;89.57
41334;BME280;27078;46.428;6.256;2023-03-23T00:24:02;96150.41;;;11.81;94.72
41334;BME280;27078;46.428;6.256;2023-03-23T00:26:28;96143.75;;;11.77;96.20
41334;BME280;27078;46.428;6.256;2023-03-23T00:28:55;96143.38;;;11.72;100.00
41334;BME280;27078;46.428;6.256;2023-03-23T00:31:20;96145.03;;;11.73;100.00
41334;BME280;27078;46.428;6.256;2023-03-23T00:33:46;96146.56;;;11.75;98.08
41334;BME280;27078;46.428;6.256;2023-03-23T00:36:12;96146.56;;;11.75;97.94
41334;BME280;27078;46.428;6.256;2023-03-23T00:38:39;96153.56;;;11.85;95.00
41334;BME280;27078;46.428;6.256;2023-03-23T00:41:06;96149.22;;;11.93;96.63
41334;BME280;27078;46.428;6.256;2023-03-23T00:43:32;96143.66;;;11.87;96.97
41334;BME280;27078;46.428;6.256;2023-03-23T00:46:01;96152.53;;;11.77;98.00
41334;BME280;27078;46.428;6.256;2023-03-23T00:48:28;96146.00;;;11.72;96.47
41334;BME280;27078;46.428;6.256;2023-03-23T00:50:55;96147.97;;;11.70;96.34
41334;BME280;27078;46.428;6.256;2023-03-23T00:53:21;96147.00;;;11.71;96.28
41334;BME280;27078;46.428;6.256;2023-03-23T00:55:47;96151.31;;;11.72;98.52
41334;BME280;27078;46.428;6.256;2023-03-23T00:58:14;96138.75;;;11.74;98.87
41334;BME280;27078;46.428;6.256;2023-03-23T01:00:41;96137.94;;;11.73;98.75
41334;BME280;27078;46.428;6.256;2023-03-23T01:03:08;96134.59;;;11.71;99.18
41334;BME280;27078;46.428;6.256;2023-03-23T01:05:40;96137.31;;;11.79;96.54
41334;BME280;27078;46.428;6.256;2023-03-23T01:08:06;96144.66;;;11.68;98.04
41334;BME280;27078;46.428;6.256;2023-03-23T01:10:32;96134.66;;;11.61;99.94
41334;BME280;27078;46.428;6.256;2023-03-23T01:12:59;96136.13;;;11.56;99.03
41334;BME280;27078;46.428;6.256;2023-03-23T01:15:28;96128.59;;;11.51;100.00
41334;BME280;27078;46.428;6.256;2023-03-23T01:17:54;96131.69;;;11.47;100.00
41334;BME280;27078;46.428;6.256;2023-03-23T01:20:20;96129.97;;;11.55;100.00
41334;BME280;27078;46.428;6.256;2023-03-23T01:22:45;96131.34;;;11.59;100.00
41334;BME280;27078;46.428;6.256;2023-03-23T01:25:12;96125.06;;;11.78;100.00
41334;BME280;27078;46.428;6.256;2023-03-23T01:27:39;96131.06;;;11.63;100.00
41334;BME280;27078;46.428;6.256;2023-03-23T01:30:05;96115.78;;;11.56;100.00
41334;BME280;27078;46.428;6.256;2023-03-23T01:32:31;96119.66;;;11.62;100.00
41334;BME280;27078;46.428;6.256;2023-03-23T01:34:57;96116.16;;;11.79;95.98
41334;BME280;27078;46.428;6.256;2023-03-23T01:37:22;96114.44;;;11.88;90.70
41334;BME280;27078;46.428;6.256;2023-03-23T01:39:56;96117.31;;;11.77;100.00
41334;BME280;27078;46.428;6.256;2023-03-23T01:42:26;96122.97;;;11.64;100.00
41334;BME280;27078;46.428;6.256;2023-03-23T01:47:46;96118.88;;;11.52;100.00
41334;BME280;27078;46.428;6.256;2023-03-23T01:50:15;96116.00;;;11.45;100.00
41334;BME280;27078;46.428;6.256;2023-03-23T01:52:40;96116.28;;;11.42;100.00
41334;BME280;27078;46.428;6.256;2023-03-23T01:55:06;96125.22;;;11.41;100.00
41334;BME280;27078;46.428;6.256;2023-03-23T01:57:31;96126.19;;;11.40;100.00
41334;BME280;27078;46.428;6.256;2023-03-23T02:00:01;96123.63;;;11.48;100.00
41334;BME280;27078;46.428;6.256;2023-03-23T02:02:33;96117.19;;;11.51;98.62
41334;BME280;27078;46.428;6.256;2023-03-23T02:05:02;96118.28;;;11.58;99.07
41334;BME280;27078;46.428;6.256;2023-03-23T02:07:32;96123.56;;;11.58;100.00
41334;BME280;27078;46.428;6.256;2023-03-23T02:09:57;96120.38;;;11.54;99.89
41334;BME280;27078;46.428;6.256;2023-03-23T02:12:24;96114.88;;;11.66;94.58
41334;BME280;27078;46.428;6.256;2023-03-23T02:14:50;96105.66;;;11.70;91.11
41334;BME280;27078;46.428;6.256;2023-03-23T02:17:43;96103.06;;;11.78;95.42
41334;BME280;27078;46.428;6.256;2023-03-23T02:20:19;96105.03;;;11.76;90.04
41334;BME280;27078;46.428;6.256;2023-03-23T02:28:34;96090.59;;;11.70;91.46
41334;BME280;27078;46.428;6.256;2023-03-23T02:34:18;96096.44;;;11.74;87.35
41334;BME280;27078;46.428;6.256;2023-03-23T02:36:50;96090.16;;;11.75;88.87
41334;BME280;27078;46.428;6.256;2023-03-23T02:39:26;96086.53;;;11.76;88.69
41334;BME280;27078;46.428;6.256;2023-03-23T02:42:02;96085.56;;;11.77;86.19
41334;BME280;27078;46.428;6.256;2023-03-23T02:44:31;96077.75;;;11.75;89.07
41334;BME280;27078;46.428;6.256;2023-03-23T02:46:59;96071.78;;;11.91;89.69
41334;BME280;27078;46.428;6.256;2023-03-23T02:49:28;96067.75;;;11.87;84.60
41334;BME280;27078;46.428;6.256;2023-03-23T02:51:56;96077.41;;;11.88;87.66
41334;BME280;27078;46.428;6.256;2023-03-23T02:54:22;96070.72;;;11.84;87.28
41334;BME280;27078;46.428;6.256;2023-03-23T02:56:51;96075.66;;;11.79;93.22
41334;BME280;27078;46.428;6.256;2023-03-23T02:59:18;96081.31;;;11.66;90.93
41334;BME280;27078;46.428;6.256;2023-03-23T03:04:14;96073.47;;;11.56;88.66
41334;BME280;27078;46.428;6.256;2023-03-23T03:09:31;96070.75;;;11.48;92.68
41334;BME280;27078;46.428;6.256;2023-03-23T03:12:08;96062.94;;;11.29;96.79
41334;BME280;27078;46.428;6.256;2023-03-23T03:14:48;96058.25;;;11.23;99.22
41334;BME280;27078;46.428;6.256;2023-03-23T03:17:20;96063.72;;;11.39;95.92
41334;BME280;27078;46.428;6.256;2023-03-23T03:19:50;96065.31;;;11.50;95.18
41334;BME280;27078;46.428;6.256;2023-03-23T03:22:19;96063.47;;;11.50;91.89
41334;BME280;27078;46.428;6.256;2023-03-23T03:24:47;96058.72;;;11.54;91.61
41334;BME280;27078;46.428;6.256;2023-03-23T03:27:16;96057.88;;;11.53;90.87
41334;BME280;27078;46.428;6.256;2023-03-23T03:29:45;96059.03;;;11.51;94.56
41334;BME280;27078;46.428;6.256;2023-03-23T03:32:17;96046.63;;;11.51;89.98
41334;BME280;27078;46.428;6.256;2023-03-23T03:34:45;96047.00;;;11.56;89.47
41334;BME280;27078;46.428;6.256;2023-03-23T03:37:11;96041.41;;;11.59;88.76
41334;BME280;27078;46.428;6.256;2023-03-23T03:39:37;96038.47;;;11.63;87.72
41334;BME280;27078;46.428;6.256;2023-03-23T03:42:06;96039.38;;;11.53;89.55
41334;BME280;27078;46.428;6.256;2023-03-23T03:44:32;96026.78;;;11.47;92.75
41334;BME280;27078;46.428;6.256;2023-03-23T03:46:58;96036.69;;;11.45;95.96
41334;BME280;27078;46.428;6.256;2023-03-23T03:49:23;96035.59;;;11.38;92.41
41334;BME280;27078;46.428;6.256;2023-03-23T03:51:49;96030.09;;;11.31;96.49
41334;BME280;27078;46.428;6.256;2023-03-23T03:54:14;96037.88;;;11.33;98.65
41334;BME280;27078;46.428;6.256;2023-03-23T03:56:41;96034.25;;;11.34;92.27
41334;BME280;27078;46.428;6.256;2023-03-23T03:59:08;96039.25;;;11.37;93.04
41334;BME280;27078;46.428;6.256;2023-03-23T04:01:36;96036.97;;;11.42;94.13
41334;BME280;27078;46.428;6.256;2023-03-23T04:04:02;96046.72;;;11.41;95.68
41334;BME280;27078;46.428;6.256;2023-03-23T04:06:28;96047.19;;;11.37;94.55
41334;BME280;27078;46.428;6.256;2023-03-23T04:08:57;96041.56;;;11.40;98.67
41334;BME280;27078;46.428;6.256;2023-03-23T04:11:24;96044.72;;;11.26;100.00
41334;BME280;27078;46.428;6.256;2023-03-23T04:13:50;96039.44;;;11.26;99.69
41334;BME280;27078;46.428;6.256;2023-03-23T04:16:16;96029.41;;;11.29;100.00
41334;BME280;27078;46.428;6.256;2023-03-23T04:18:42;96041.25;;;11.25;98.19
41334;BME280;27078;46.428;6.256;2023-03-23T04:21:07;96038.69;;;11.33;92.27
41334;BME280;27078;46.428;6.256;2023-03-23T04:23:33;96028.75;;;11.45;90.29
41334;BME280;27078;46.428;6.256;2023-03-23T04:26:00;96024.78;;;11.49;91.24
41334;BME280;27078;46.428;6.256;2023-03-23T04:28:27;96032.06;;;11.47;94.80
41334;BME280;27078;46.428;6.256;2023-03-23T04:30:53;96033.28;;;11.35;100.00
41334;BME280;27078;46.428;6.256;2023-03-23T04:33:22;96045.03;;;11.23;100.00
41334;BME280;27078;46.428;6.256;2023-03-23T04:35:51;96050.94;;;11.34;100.00
41334;BME280;27078;46.428;6.256;2023-03-23T04:38:17;96046.25;;;11.46;100.00
41334;BME280;27078;46.428;6.256;2023-03-23T04:40:46;96047.09;;;11.65;92.67
41334;BME280;27078;46.428;6.256;2023-03-23T04:43:11;96039.06;;;11.92;91.42
41334;BME280;27078;46.428;6.256;2023-03-23T04:45:38;96038.19;;;12.10;86.07
41334;BME280;27078;46.428;6.256;2023-03-23T04:48:07;96045.16;;;12.11;84.43
41334;BME280;27078;46.428;6.256;2023-03-23T04:50:34;96046.81;;;12.12;88.45
41334;BME280;27078;46.428;6.256;2023-03-23T04:53:00;96051.56;;;12.08;87.88
41334;BME280;27078;46.428;6.256;2023-03-23T04:55:30;96055.91;;;12.09;91.83
41334;BME280;27078;46.428;6.256;2023-03-23T04:57:57;96045.78;;;12.05;89.57
41334;BME280;27078;46.428;6.256;2023-03-23T05:00:25;96048.72;;;12.01;88.35
41334;BME280;27078;46.428;6.256;2023-03-23T05:02:51;96044.72;;;11.97;90.59
41334;BME280;27078;46.428;6.256;2023-03-23T05:05:17;96048.97;;;11.90;90.92
41334;BME280;27078;46.428;6.256;2023-03-23T05:07:43;96044.78;;;11.88;94.46
41334;BME280;27078;46.428;6.256;2023-03-23T05:10:10;96038.38;;;11.90;96.54
41334;BME280;27078;46.428;6.256;2023-03-23T05:12:36;96037.25;;;11.93;97.74
41334;BME280;27078;46.428;6.256;2023-03-23T05:15:02;96044.72;;;11.97;97.27
41334;BME280;27078;46.428;6.256;2023-03-23T05:17:28;96045.88;;;11.95;96.35
41334;BME280;27078;46.428;6.256;2023-03-23T05:19:55;96052.31;;;11.92;100.00
41334;BME280;27078;46.428;6.256;2023-03-23T05:22:22;96049.94;;;11.89;97.95
41334;BME280;27078;46.428;6.256;2023-03-23T05:24:48;96051.53;;;11.82;100.00
41334;BME280;27078;46.428;6.256;2023-03-23T05:27:17;96050.63;;;11.73;98.65
41334;BME280;27078;46.428;6.256;2023-03-23T05:29:44;96052.75;;;11.70;100.00
41334;BME280;27078;46.428;6.256;2023-03-23T05:32:11;96042.91;;;11.80;100.00
41334;BME280;27078;46.428;6.256;2023-03-23T05:34:37;96043.25;;;11.85;100.00
41334;BME280;27078;46.428;6.256;2023-03-23T05:37:02;96050.94;;;11.88;100.00
41334;BME280;27078;46.428;6.256;2023-03-23T05:39:29;96047.72;;;11.85;100.00
41334;BME280;27078;46.428;6.256;2023-03-23T05:41:55;96053.50;;;11.80;100.00
41334;BME280;27078;46.428;6.256;2023-03-23T05:44:21;96055.78;;;11.75;99.65
41334;BME280;27078;46.428;6.256;2023-03-23T05:46:46;96059.38;;;11.74;99.77
41334;BME280;27078;46.428;6.256;2023-03-23T05:49:12;96060.06;;;11.76;100.00
41334;BME280;27078;46.428;6.256;2023-03-23T05:51:38;96072.69;;;11.82;100.00
41334;BME280;27078;46.428;6.256;2023-03-23T05:54:05;96070.66;;;11.76;100.00
41334;BME280;27078;46.428;6.256;2023-03-23T05:56:30;96071.94;;;11.72;100.00
41334;BME280;27078;46.428;6.256;2023-03-23T05:58:56;96077.22;;;11.72;100.00
41334;BME280;27078;46.428;6.256;2023-03-23T06:01:22;96073.63;;;11.73;100.00
41334;BME280;27078;46.428;6.256;2023-03-23T06:03:49;96078.91;;;11.73;100.00
41334;BME280;27078;46.428;6.256;2023-03-23T06:06:16;96071.03;;;11.81;100.00
41334;BME280;27078;46.428;6.256;2023-03-23T06:08:43;96083.59;;;11.79;100.00
41334;BME280;27078;46.428;6.256;2023-03-23T06:11:08;96087.66;;;11.91;100.00
41334;BME280;27078;46.428;6.256;2023-03-23T06:13:33;96098.56;;;11.88;100.00
41334;BME280;27078;46.428;6.256;2023-03-23T06:15:59;96097.19;;;11.84;100.00
41334;BME280;27078;46.428;6.256;2023-03-23T06:18:24;96095.81;;;11.80;100.00
41334;BME280;27078;46.428;6.256;2023-03-23T06:20:50;96096.13;;;11.77;100.00
41334;BME280;27078;46.428;6.256;2023-03-23T06:23:16;96094.47;;;11.76;100.00
41334;BME280;27078;46.428;6.256;2023-03-23T06:25:43;96094.19;;;11.79;100.00
41334;BME280;27078;46.428;6.256;2023-03-23T06:28:09;96088.81;;;11.89;100.00
41334;BME280;27078;46.428;6.256;2023-03-23T06:30:34;96104.13;;;11.85;100.00
41334;BME280;27078;46.428;6.256;2023-03-23T06:33:00;96094.53;;;11.84;100.00
41334;BME280;27078;46.428;6.256;2023-03-23T06:35:27;96095.22;;;11.86;100.00
41334;BME280;27078;46.428;6.256;2023-03-23T06:37:52;96085.78;;;11.84;100.00
41334;BME280;27078;46.428;6.256;2023-03-23T06:40:19;96083.81;;;11.86;100.00
41334;BME280;27078;46.428;6.256;2023-03-23T06:42:44;96096.00;;;11.96;100.00
41334;BME280;27078;46.428;6.256;2023-03-23T06:45:10;96088.00;;;12.14;100.00
41334;BME280;27078;46.428;6.256;2023-03-23T06:47:35;96100.16;;;12.25;100.00
41334;BME280;27078;46.428;6.256;2023-03-23T06:50:01;96102.38;;;12.30;100.00
41334;BME280;27078;46.428;6.256;2023-03-23T06:52:26;96109.03;;;12.42;99.84
41334;BME280;27078;46.428;6.256;2023-03-23T06:54:52;96098.16;;;12.45;97.75
41334;BME280;27078;46.428;6.256;2023-03-23T06:57:18;96098.00;;;12.47;100.00
41334;BME280;27078;46.428;6.256;2023-03-23T06:59:44;96095.38;;;12.47;96.42
41334;BME280;27078;46.428;6.256;2023-03-23T07:02:10;96105.97;;;12.47;99.90
41334;BME280;27078;46.428;6.256;2023-03-23T07:04:37;96108.75;;;12.45;100.00
41334;BME280;27078;46.428;6.256;2023-03-23T07:07:03;96113.03;;;12.46;98.14
41334;BME280;27078;46.428;6.256;2023-03-23T07:09:29;96107.94;;;12.45;100.00
41334;BME280;27078;46.428;6.256;2023-03-23T07:11:54;96108.13;;;12.51;100.00
41334;BME280;27078;46.428;6.256;2023-03-23T07:14:19;96102.03;;;12.59;100.00
41334;BME280;27078;46.428;6.256;2023-03-23T07:16:46;96105.13;;;12.80;93.87
41334;BME280;27078;46.428;6.256;2023-03-23T07:19:12;96107.84;;;12.97;94.11
41334;BME280;27078;46.428;6.256;2023-03-23T07:21:37;96102.91;;;13.02;87.56
41334;BME280;27078;46.428;6.256;2023-03-23T07:24:03;96104.25;;;13.06;90.06
41334;BME280;27078;46.428;6.256;2023-03-23T07:26:28;96106.91;;;13.06;87.02
41334;BME280;27078;46.428;6.256;2023-03-23T07:28:54;96098.59;;;13.01;84.33
41334;BME280;27078;46.428;6.256;2023-03-23T07:31:19;96102.25;;;13.00;86.29
41334;BME280;27078;46.428;6.256;2023-03-23T07:33:45;96097.84;;;13.17;74.79
41334;BME280;27078;46.428;6.256;2023-03-23T07:36:11;96106.28;;;13.20;82.51
41334;BME280;27078;46.428;6.256;2023-03-23T07:38:36;96107.31;;;13.28;81.03
41334;BME280;27078;46.428;6.256;2023-03-23T07:41:02;96108.69;;;13.32;79.73
41334;BME280;27078;46.428;6.256;2023-03-23T07:43:28;96117.47;;;13.32;82.13
41334;BME280;27078;46.428;6.256;2023-03-23T07:45:53;96117.31;;;13.34;86.43
41334;BME280;27078;46.428;6.256;2023-03-23T07:48:19;96129.25;;;13.38;82.76
41334;BME280;27078;46.428;6.256;2023-03-23T07:50:44;96122.47;;;13.43;81.24
41334;BME280;27078;46.428;6.256;2023-03-23T07:53:10;96127.63;;;13.53;85.55
41334;BME280;27078;46.428;6.256;2023-03-23T07:55:35;96123.84;;;13.64;79.40
41334;BME280;27078;46.428;6.256;2023-03-23T07:58:01;96118.56;;;13.72;87.40
41334;BME280;27078;46.428;6.256;2023-03-23T08:00:26;96115.72;;;13.82;89.69
41334;BME280;27078;46.428;6.256;2023-03-23T08:02:56;96118.25;;;14.00;84.40
41334;BME280;27078;46.428;6.256;2023-03-23T08:05:23;96116.25;;;14.18;84.40
41334;BME280;27078;46.428;6.256;2023-03-23T08:07:51;96123.53;;;14.33;81.05
41334;BME280;27078;46.428;6.256;2023-03-23T08:10:19;96128.00;;;14.49;83.04
41334;BME280;27078;46.428;6.256;2023-03-23T08:12:51;96116.06;;;14.61;82.11
41334;BME280;27078;46.428;6.256;2023-03-23T08:15:16;96109.88;;;14.77;76.39
41334;BME280;27078;46.428;6.256;2023-03-23T08:17:42;96114.47;;;14.99;78.81
41334;BME280;27078;46.428;6.256;2023-03-23T08:20:09;96116.41;;;15.14;68.86
41334;BME280;27078;46.428;6.256;2023-03-23T08:22:42;96110.56;;;15.18;66.24
41334;BME280;27078;46.428;6.256;2023-03-23T08:25:09;96111.38;;;15.27;67.03
41334;BME280;27078;46.428;6.256;2023-03-23T08:27:35;96108.88;;;15.25;66.64
41334;BME280;27078;46.428;6.256;2023-03-23T08:30:02;96110.50;;;15.35;67.71
41334;BME280;27078;46.428;6.256;2023-03-23T08:32:27;96109.31;;;15.37;66.57
41334;BME280;27078;46.428;6.256;2023-03-23T08:34:53;96122.97;;;15.34;70.05
41334;BME280;27078;46.428;6.256;2023-03-23T08:37:18;96128.81;;;15.30;76.09
41334;BME280;27078;46.428;6.256;2023-03-23T08:39:44;96127.63;;;15.32;69.87
41334;BME280;27078;46.428;6.256;2023-03-23T08:42:10;96126.06;;;15.46;70.78
41334;BME280;27078;46.428;6.256;2023-03-23T08:44:36;96122.06;;;15.50;69.60
41334;BME280;27078;46.428;6.256;2023-03-23T08:47:02;96120.25;;;15.42;72.80
41334;BME280;27078;46.428;6.256;2023-03-23T08:49:31;96125.72;;;15.49;73.19
41334;BME280;27078;46.428;6.256;2023-03-23T08:51:59;96123.13;;;15.41;70.34
41334;BME280;27078;46.428;6.256;2023-03-23T08:54:24;96120.13;;;15.36;69.45
41334;BME280;27078;46.428;6.256;2023-03-23T08:56:50;96119.28;;;15.43;65.34
41334;BME280;27078;46.428;6.256;2023-03-23T08:59:16;96126.72;;;15.48;68.65
41334;BME280;27078;46.428;6.256;2023-03-23T09:01:41;96124.69;;;15.58;64.03
41334;BME280;27078;46.428;6.256;2023-03-23T09:04:07;96121.97;;;15.66;65.19
41334;BME280;27078;46.428;6.256;2023-03-23T09:06:35;96119.09;;;15.76;62.19
41334;BME280;27078;46.428;6.256;2023-03-23T09:09:01;96118.06;;;15.85;64.42
41334;BME280;27078;46.428;6.256;2023-03-23T09:11:32;96117.25;;;15.77;62.82
41334;BME280;27078;46.428;6.256;2023-03-23T09:13:57;96112.78;;;15.77;63.49
41334;BME280;27078;46.428;6.256;2023-03-23T09:16:23;96120.13;;;15.75;60.42
41334;BME280;27078;46.428;6.256;2023-03-23T09:18:48;96114.09;;;16.04;64.45
41334;BME280;27078;46.428;6.256;2023-03-23T09:21:15;96117.44;;;16.21;61.77
41334;BME280;27078;46.428;6.256;2023-03-23T09:23:40;96121.53;;;16.32;63.50
41334;BME280;27078;46.428;6.256;2023-03-23T09:26:09;96114.38;;;16.10;58.30
41334;BME280;27078;46.428;6.256;2023-03-23T09:28:34;96129.34;;;16.48;62.91
41334;BME280;27078;46.428;6.256;2023-03-23T09:31:00;96123.84;;;16.50;63.53
41334;BME280;27078;46.428;6.256;2023-03-23T09:33:25;96123.09;;;16.41;59.90
41334;BME280;27078;46.428;6.256;2023-03-23T09:35:52;96132.81;;;16.72;60.91
41334;BME280;27078;46.428;6.256;2023-03-23T09:38:18;96134.63;;;16.72;59.25
41334;BME280;27078;46.428;6.256;2023-03-23T09:40:49;96137.19;;;16.65;63.06
41334;BME280;27078;46.428;6.256;2023-03-23T09:48:53;96127.53;;;17.02;65.48
41334;BME280;27078;46.428;6.256;2023-03-23T09:54:30;96120.28;;;17.47;61.00
41334;BME280;27078;46.428;6.256;2023-03-23T09:56:55;96123.63;;;17.70;62.02
41334;BME280;27078;46.428;6.256;2023-03-23T09:59:35;96119.44;;;17.98;59.96
41334;BME280;27078;46.428;6.256;2023-03-23T10:02:18;96126.47;;;17.84;57.87
41334;BME280;27078;46.428;6.256;2023-03-23T10:04:46;96132.09;;;17.89;55.65
41334;BME280;27078;46.428;6.256;2023-03-23T10:07:24;96121.28;;;17.46;57.17
41334;BME280;27078;46.428;6.256;2023-03-23T10:09:59;96131.25;;;17.37;58.01
41334;BME280;27078;46.428;6.256;2023-03-23T10:12:51;96129.72;;;17.64;63.91
41334;BME280;27078;46.428;6.256;2023-03-23T10:15:23;96126.09;;;17.50;58.51
41334;BME280;27078;46.428;6.256;2023-03-23T10:18:01;96129.75;;;17.49;59.76
41334;BME280;27078;46.428;6.256;2023-03-23T10:26:00;96123.81;;;17.33;58.06
41334;BME280;27078;46.428;6.256;2023-03-23T10:28:40;96117.81;;;17.45;56.89
41334;BME280;27078;46.428;6.256;2023-03-23T10:31:11;96125.13;;;17.58;58.43
41334;BME280;27078;46.428;6.256;2023-03-23T10:33:41;96123.22;;;17.52;57.81
41334;BME280;27078;46.428;6.256;2023-03-23T10:36:37;96134.28;;;17.49;65.00
41334;BME280;27078;46.428;6.256;2023-03-23T10:39:11;96123.22;;;17.52;62.30
41334;BME280;27078;46.428;6.256;2023-03-23T10:41:37;96126.66;;;17.31;59.10
41334;BME280;27078;46.428;6.256;2023-03-23T10:44:17;96125.19;;;17.28;59.46
41334;BME280;27078;46.428;6.256;2023-03-23T10:46:52;96135.88;;;17.28;62.77
41334;BME280;27078;46.428;6.256;2023-03-23T10:49:24;96133.38;;;17.27;61.54
41334;BME280;27078;46.428;6.256;2023-03-23T10:52:24;96131.81;;;17.33;57.23
41334;BME280;27078;46.428;6.256;2023-03-23T10:55:17;96130.78;;;17.48;59.11
41334;BME280;27078;46.428;6.256;2023-03-23T10:57:58;96128.56;;;17.52;55.52
41334;BME280;27078;46.428;6.256;2023-03-23T11:00:25;96136.91;;;17.64;57.43
41334;BME280;27078;46.428;6.256;2023-03-23T11:03:05;96149.25;;;17.65;55.94
41334;BME280;27078;46.428;6.256;2023-03-23T11:05:42;96148.63;;;17.48;57.03
41334;BME280;27078;46.428;6.256;2023-03-23T11:08:23;96137.16;;;17.33;54.58
41334;BME280;27078;46.428;6.256;2023-03-23T11:13:19;96137.63;;;17.06;55.98
41334;BME280;27078;46.428;6.256;2023-03-23T11:15:45;96146.47;;;16.92;57.22
41334;BME280;27078;46.428;6.256;2023-03-23T11:18:18;96151.53;;;17.02;57.59
41334;BME280;27078;46.428;6.256;2023-03-23T11:20:48;96143.16;;;17.05;55.53
41334;BME280;27078;46.428;6.256;2023-03-23T11:23:22;96143.06;;;17.13;54.85
41334;BME280;27078;46.428;6.256;2023-03-23T11:31:21;96139.56;;;16.83;58.27
41334;BME280;27078;46.428;6.256;2023-03-23T11:33:50;96146.38;;;16.85;56.61
41334;BME280;27078;46.428;6.256;2023-03-23T11:36:17;96148.25;;;16.77;57.04
41334;BME280;27078;46.428;6.256;2023-03-23T11:38:43;96145.13;;;16.73;57.04
41334;BME280;27078;46.428;6.256;2023-03-23T11:41:18;96145.50;;;16.70;58.04
41334;BME280;27078;46.428;6.256;2023-03-23T11:43:45;96142.94;;;16.77;57.26
41334;BME280;27078;46.428;6.256;2023-03-23T11:46:18;96129.16;;;17.03;57.71
41334;BME280;27078;46.428;6.256;2023-03-23T11:48:55;96139.34;;;17.29;58.35
41334;BME280;27078;46.428;6.256;2023-03-23T11:54:25;96145.19;;;17.69;57.51
41334;BME280;27078;46.428;6.256;2023-03-23T11:56:51;96151.91;;;17.65;55.61
41334;BME280;27078;46.428;6.256;2023-03-23T11:59:26;96147.06;;;17.54;57.21
41334;BME280;27078;46.428;6.256;2023-03-23T12:04:33;96161.25;;;17.24;57.55
41334;BME280;27078;46.428;6.256;2023-03-23T12:10:08;96164.94;;;16.56;62.29
41334;BME280;27078;46.428;6.256;2023-03-23T12:12:55;96169.22;;;16.19;69.50
41334;BME280;27078;46.428;6.256;2023-03-23T12:15:32;96148.63;;;16.36;74.41
41334;BME280;27078;46.428;6.256;2023-03-23T12:21:18;96136.66;;;16.32;74.37
41334;BME280;27078;46.428;6.256;2023-03-23T12:24:06;96137.50;;;16.32;79.19
41334;BME280;27078;46.428;6.256;2023-03-23T12:29:43;96144.31;;;16.35;74.73
41334;BME280;27078;46.428;6.256;2023-03-23T12:45:56;96151.38;;;16.04;75.36
41334;BME280;27078;46.428;6.256;2023-03-23T12:48:32;96147.56;;;15.99;70.38
41334;BME280;27078;46.428;6.256;2023-03-23T12:56:52;96159.50;;;15.80;73.36
41334;BME280;27078;46.428;6.256;2023-03-23T12:59:33;96170.91;;;15.57;76.57
41334;BME280;27078;46.428;6.256;2023-03-23T13:02:10;96174.09;;;15.53;74.08
41334;BME280;27078;46.428;6.256;2023-03-23T13:04:39;96168.44;;;15.56;73.38
41334;BME280;27078;46.428;6.256;2023-03-23T13:07:09;96168.25;;;15.57;78.91
41334;BME280;27078;46.428;6.256;2023-03-23T13:09:44;96163.59;;;15.59;78.11
41334;BME280;27078;46.428;6.256;2023-03-23T13:12:13;96159.25;;;15.66;77.95
41334;BME280;27078;46.428;6.256;2023-03-23T13:20:07;96167.22;;;15.66;79.15
41334;BME280;27078;46.428;6.256;2023-03-23T13:22:44;96159.41;;;15.65;78.25
41334;BME280;27078;46.428;6.256;2023-03-23T13:25:23;96166.06;;;15.61;79.32
41334;BME280;27078;46.428;6.256;2023-03-23T13:27:59;96152.00;;;15.52;75.30
41334;BME280;27078;46.428;6.256;2023-03-23T13:30:27;96149.00;;;15.47;74.85
41334;BME280;27078;46.428;6.256;2023-03-23T13:33:01;96161.94;;;15.58;74.02
41334;BME280;27078;46.428;6.256;2023-03-23T13:35:34;96152.59;;;15.62;71.77
41334;BME280;27078;46.428;6.256;2023-03-23T13:38:01;96162.75;;;15.59;73.93
41334;BME280;27078;46.428;6.256;2023-03-23T13:40:35;96167.47;;;15.48;71.48
41334;BME280;27078;46.428;6.256;2023-03-23T13:43:08;96168.28;;;15.49;77.34
41334;BME280;27078;46.428;6.256;2023-03-23T13:45:45;96165.94;;;15.54;76.19
41334;BME280;27078;46.428;6.256;2023-03-23T13:53:21;96152.00;;;15.52;77.13
41334;BME280;27078;46.428;6.256;2023-03-23T13:56:02;96145.31;;;15.56;78.94
41334;BME280;27078;46.428;6.256;2023-03-23T13:58:28;96147.69;;;15.43;77.45
41334;BME280;27078;46.428;6.256;2023-03-23T14:01:12;96145.09;;;15.35;79.45
41334;BME280;27078;46.428;6.256;2023-03-23T14:03:42;96144.09;;;15.27;81.47
41334;BME280;27078;46.428;6.256;2023-03-23T14:06:18;96140.63;;;15.27;78.94
41334;BME280;27078;46.428;6.256;2023-03-23T14:08:48;96155.56;;;15.28;83.23
41334;BME280;27078;46.428;6.256;2023-03-23T14:11:24;96140.78;;;15.25;82.53
41334;BME280;27078;46.428;6.256;2023-03-23T14:14:03;96141.78;;;15.33;81.03
41334;BME280;27078;46.428;6.256;2023-03-23T14:16:44;96136.91;;;15.36;81.35
41334;BME280;27078;46.428;6.256;2023-03-23T14:19:17;96132.91;;;15.40;80.36
41334;BME280;27078;46.428;6.256;2023-03-23T14:21:50;96130.25;;;15.40;81.62
41334;BME280;27078;46.428;6.256;2023-03-23T14:24:19;96133.75;;;15.41;84.41
41334;BME280;27078;46.428;6.256;2023-03-23T14:26:44;96125.06;;;15.47;85.29
41334;BME280;27078;46.428;6.256;2023-03-23T14:29:13;96115.06;;;15.49;82.74
41334;BME280;27078;46.428;6.256;2023-03-23T14:31:39;96117.44;;;15.44;83.24